Time;durP1;ratioP1;P1;durP2;ratioP2;P2;SDS_P1;SDS_P2;PMS_P1;PMS_P2;Temp;Humidity;BMP_temperature;BMP_pressure;BME280_temperature;BME280_humidity;BME280_pressure;Samples;Min_cycle;Max_cycle;Signal;HPM_P1;HPM_P2
2022/02/11 00:01:04;;;;;;;;;;;6.50;97.80;;;;;;5036018;28;20381;-75
2022/02/11 00:08:42;;;;;;;;;;;6.70;98.40;;;;;;5053413;28;19962;-75
2022/02/11 00:11:08;;;;;;;;;;;6.60;97.30;;;;;;5035441;28;19913;-75
2022/02/11 00:13:34;;;;;;;;;;;6.50;98.60;;;;;;5018937;28;19913;-75
2022/02/11 00:15:59;;;;;;;;;;;6.50;99.10;;;;;;5053180;28;19931;-75
2022/02/11 00:18:25;;;;;;;;;;;6.60;99.90;;;;;;5019668;28;19909;-75
2022/02/11 00:20:51;;;;;;;;;;;6.70;98.70;;;;;;5052118;28;19959;-75
2022/02/11 00:23:17;;;;;;;;;;;6.60;99.00;;;;;;5051920;28;19920;-74
2022/02/11 00:25:57;;;;;;;;;;;6.60;99.60;;;;;;5053048;28;19912;-75
2022/02/11 00:33:56;;;;;;;;;;;6.70;99.90;;;;;;5052831;28;19986;-74
2022/02/11 00:36:31;;;;;;;;;;;6.70;99.90;;;;;;5035010;28;19909;-74
2022/02/11 01:05:50;;;;;;;;;;;7.00;97.60;;;;;;5034440;28;19919;-75
2022/02/11 01:08:16;;;;;;;;;;;6.90;96.60;;;;;;5052720;28;19992;-75
2022/02/11 01:10:43;;;;;;;;;;;6.80;96.30;;;;;;5051556;28;19913;-75
2022/02/11 01:13:09;;;;;;;;;;;6.70;96.40;;;;;;5034845;28;19958;-75
2022/02/11 01:15:38;;;;;;;;;;;6.70;96.70;;;;;;5034523;28;19913;-75
2022/02/11 01:18:06;;;;;;;;;;;6.70;96.60;;;;;;5034683;28;19987;-75
2022/02/11 01:23:43;;;;;;;;;;;6.90;95.90;;;;;;5052499;28;19909;-75
2022/02/11 01:26:40;;;;;;;;;;;6.90;95.50;;;;;;5034474;28;19936;-75
2022/02/11 01:32:01;;;;;;;;;;;7.00;94.30;;;;;;5052499;28;19913;-75
2022/02/11 01:37:18;;;;;;;;;;;6.60;94.80;;;;;;5052322;28;19916;-76
2022/02/11 01:50:34;;;;;;;;;;;6.80;94.60;;;;;;5052178;28;19913;-75
2022/02/11 01:53:25;;;;;;;;;;;6.90;94.50;;;;;;5052055;28;20394;-75
2022/02/11 01:56:10;;;;;;;;;;;7.00;94.10;;;;;;5020871;28;19932;-75
2022/02/11 02:02:04;;;;;;;;;;;6.90;94.30;;;;;;5056310;28;19920;-76
2022/02/11 02:57:19;;;;;;;;;;;7.00;99.00;;;;;;5054588;28;19909;-76
2022/02/11 04:27:39;;;;;;;;;;;5.60;99.90;;;;;;5035097;28;19913;-75
2022/02/11 04:56:31;;;;;;;;;;;5.20;99.90;;;;;;5034775;28;19963;-75
2022/02/11 05:01:42;;;;;;;;;;;5.20;99.90;;;;;;5052517;28;19909;-75
2022/02/11 05:04:08;;;;;;;;;;;5.20;99.90;;;;;;5051305;28;20369;-76
2022/02/11 05:06:33;;;;;;;;;;;5.10;99.90;;;;;;5034444;28;19939;-76
2022/02/11 05:09:02;;;;;;;;;;;5.00;99.90;;;;;;5051367;28;19913;-75
2022/02/11 05:11:27;;;;;;;;;;;5.20;99.90;;;;;;5034528;28;19959;-76
2022/02/11 05:13:53;;;;;;;;;;;5.20;99.90;;;;;;5051500;28;19909;-75
2022/02/11 05:16:19;;;;;;;;;;;5.20;99.90;;;;;;5052369;28;20093;-75
2022/02/11 05:18:44;;;;;;;;;;;5.20;99.90;;;;;;5018250;28;19959;-76
2022/02/11 05:21:10;;;;;;;;;;;5.30;99.90;;;;;;5034487;28;19913;-75
2022/02/11 05:23:35;;;;;;;;;;;5.20;99.90;;;;;;5034461;28;19931;-76
2022/02/11 05:26:01;;;;;;;;;;;5.30;99.90;;;;;;5034331;28;19913;-76
2022/02/11 05:28:27;;;;;;;;;;;5.30;99.90;;;;;;5035497;28;19976;-76
2022/02/11 05:30:52;;;;;;;;;;;5.20;99.90;;;;;;5055352;28;19909;-75
2022/02/11 05:33:20;;;;;;;;;;;5.10;99.90;;;;;;5038575;28;20284;-75
2022/02/11 05:35:46;;;;;;;;;;;5.00;99.90;;;;;;5038511;28;19908;-75
2022/02/11 05:38:11;;;;;;;;;;;4.90;99.90;;;;;;5038600;28;20073;-75
2022/02/11 05:40:37;;;;;;;;;;;4.90;99.90;;;;;;5038254;28;19995;-75
2022/02/11 05:43:03;;;;;;;;;;;5.00;99.90;;;;;;5038225;28;19916;-75
2022/02/11 05:45:29;;;;;;;;;;;5.10;99.90;;;;;;5056016;28;19931;-75
2022/02/11 05:47:54;;;;;;;;;;;5.10;99.90;;;;;;5038309;28;19908;-76
2022/02/11 05:50:20;;;;;;;;;;;5.00;99.90;;;;;;5038298;28;20295;-76
2022/02/11 05:52:46;;;;;;;;;;;5.00;99.90;;;;;;5038024;28;19908;-75
2022/02/11 05:55:11;;;;;;;;;;;4.90;99.90;;;;;;5021573;28;19915;-75
2022/02/11 05:57:37;;;;;;;;;;;4.80;99.90;;;;;;5055728;28;20365;-76
2022/02/11 06:00:04;;;;;;;;;;;4.90;99.90;;;;;;5055773;28;19917;-75
2022/02/11 06:02:29;;;;;;;;;;;5.00;99.90;;;;;;5055966;28;19944;-75
2022/02/11 06:04:55;;;;;;;;;;;5.00;99.90;;;;;;5055676;28;19916;-75
2022/02/11 06:07:20;;;;;;;;;;;4.90;99.90;;;;;;5037543;28;19912;-75
2022/02/11 06:09:46;;;;;;;;;;;4.90;99.90;;;;;;5055746;28;20395;-75
2022/02/11 06:12:12;;;;;;;;;;;4.80;99.90;;;;;;5037839;28;19909;-75
2022/02/11 06:14:38;;;;;;;;;;;4.80;99.90;;;;;;5037772;28;19909;-76
2022/02/11 06:17:04;;;;;;;;;;;4.80;99.90;;;;;;5037811;28;19912;-75
2022/02/11 06:19:30;;;;;;;;;;;4.70;99.90;;;;;;5037797;28;19919;-75
2022/02/11 06:21:56;;;;;;;;;;;4.80;99.90;;;;;;5037499;28;19908;-75
2022/02/11 06:24:22;;;;;;;;;;;4.70;99.90;;;;;;5038420;28;19908;-76
2022/02/11 06:26:48;;;;;;;;;;;4.80;99.90;;;;;;5036863;28;20387;-75
2022/02/11 06:29:13;;;;;;;;;;;4.80;99.90;;;;;;5017580;28;19913;-75
2022/02/11 06:31:39;;;;;;;;;;;4.70;99.90;;;;;;5035667;28;19909;-75
2022/02/11 06:34:06;;;;;;;;;;;4.80;99.90;;;;;;5027909;28;19921;-75
2022/02/11 06:36:32;;;;;;;;;;;5.00;99.90;;;;;;5020687;28;19909;-75
2022/02/11 06:38:58;;;;;;;;;;;4.80;99.90;;;;;;5054634;28;20422;-75
2022/02/11 06:41:23;;;;;;;;;;;4.50;99.90;;;;;;5029331;28;20299;-75
2022/02/11 06:43:49;;;;;;;;;;;4.60;99.90;;;;;;5049730;28;19987;-76
2022/02/11 06:46:17;;;;;;;;;;;4.60;99.90;;;;;;5000570;28;20059;-75
2022/02/11 06:48:43;;;;;;;;;;;4.70;99.90;;;;;;5027348;28;20288;-75
2022/02/11 06:51:09;;;;;;;;;;;4.70;99.90;;;;;;5054639;28;19909;-75
2022/02/11 06:53:36;;;;;;;;;;;4.60;99.90;;;;;;5036641;28;19909;-75
2022/02/11 06:56:02;;;;;;;;;;;4.60;99.90;;;;;;5054070;28;20003;-75
2022/02/11 06:58:28;;;;;;;;;;;4.60;99.90;;;;;;5019593;28;19948;-75
2022/02/11 07:00:54;;;;;;;;;;;4.80;99.90;;;;;;5017052;28;19990;-75
2022/02/11 07:03:20;;;;;;;;;;;4.80;99.90;;;;;;5034732;28;19909;-76
2022/02/11 07:05:47;;;;;;;;;;;4.90;99.90;;;;;;5034384;28;19920;-76
2022/02/11 07:08:13;;;;;;;;;;;5.10;99.90;;;;;;5033541;28;19910;-76
2022/02/11 07:10:38;;;;;;;;;;;5.10;99.90;;;;;;5034398;28;19909;-75
2022/02/11 07:13:04;;;;;;;;;;;5.10;99.90;;;;;;4998923;28;19931;-76
2022/02/11 07:15:34;;;;;;;;;;;5.10;99.90;;;;;;5033303;28;19909;-75
2022/02/11 07:18:00;;;;;;;;;;;5.10;99.90;;;;;;5016864;28;20319;-76
2022/02/11 07:20:26;;;;;;;;;;;5.00;99.90;;;;;;5000784;28;20001;-76
2022/02/11 07:22:52;;;;;;;;;;;5.00;99.90;;;;;;5016883;28;20280;-76
2022/02/11 07:25:17;;;;;;;;;;;5.00;99.90;;;;;;5016724;28;20360;-75
2022/02/11 07:27:43;;;;;;;;;;;4.80;99.90;;;;;;5016748;28;19909;-76
2022/02/11 07:30:09;;;;;;;;;;;4.70;99.90;;;;;;5034336;28;20491;-76
2022/02/11 07:32:35;;;;;;;;;;;4.60;99.90;;;;;;5016553;28;19955;-75
2022/02/11 07:35:02;;;;;;;;;;;4.50;99.90;;;;;;5016646;28;19910;-75
2022/02/11 07:37:31;;;;;;;;;;;4.40;99.90;;;;;;5000212;28;19956;-76
2022/02/11 07:39:58;;;;;;;;;;;4.60;99.90;;;;;;5023653;28;20296;-75
2022/02/11 07:42:25;;;;;;;;;;;4.70;99.90;;;;;;5049399;28;19909;-75
2022/02/11 07:44:51;;;;;;;;;;;4.80;99.90;;;;;;5033907;28;20340;-76
2022/02/11 07:47:17;;;;;;;;;;;4.80;99.90;;;;;;5043152;28;20261;-75
2022/02/11 07:49:43;;;;;;;;;;;4.70;99.90;;;;;;5052719;28;19932;-75
2022/02/11 07:52:09;;;;;;;;;;;4.50;99.90;;;;;;5053022;28;20316;-76
2022/02/11 07:54:34;;;;;;;;;;;4.40;99.90;;;;;;5036143;28;19915;-75
2022/02/11 07:57:00;;;;;;;;;;;4.20;99.90;;;;;;5033521;28;19999;-75
2022/02/11 07:59:26;;;;;;;;;;;4.00;99.90;;;;;;5033735;28;19916;-75
2022/02/11 08:01:51;;;;;;;;;;;4.00;99.90;;;;;;5019853;28;19909;-76
2022/02/11 08:04:17;;;;;;;;;;;4.00;99.90;;;;;;5040397;28;20369;-76
2022/02/11 08:06:43;;;;;;;;;;;4.00;99.90;;;;;;5018388;28;19912;-76
2022/02/11 08:09:08;;;;;;;;;;;4.00;99.90;;;;;;5034552;28;20416;-76
2022/02/11 08:11:34;;;;;;;;;;;4.00;99.90;;;;;;5016269;28;20270;-76
2022/02/11 08:13:59;;;;;;;;;;;3.90;99.90;;;;;;5018647;28;19908;-76
2022/02/11 08:16:25;;;;;;;;;;;4.00;99.90;;;;;;5024969;28;19909;-76
2022/02/11 08:18:51;;;;;;;;;;;3.90;99.90;;;;;;5018649;28;19909;-76
2022/02/11 08:21:17;;;;;;;;;;;4.00;99.90;;;;;;5036806;28;19921;-76
2022/02/11 08:23:42;;;;;;;;;;;4.20;99.90;;;;;;5042456;28;19959;-76
2022/02/11 08:26:08;;;;;;;;;;;4.30;99.90;;;;;;5017543;28;19920;-76
2022/02/11 08:28:35;;;;;;;;;;;4.30;99.90;;;;;;5021141;28;19909;-76
2022/02/11 08:31:01;;;;;;;;;;;4.00;99.90;;;;;;5035174;28;20463;-77
2022/02/11 08:33:27;;;;;;;;;;;3.90;99.90;;;;;;5016384;28;20007;-76
2022/02/11 08:35:54;;;;;;;;;;;4.10;99.90;;;;;;5031752;28;19908;-76
2022/02/11 08:38:20;;;;;;;;;;;4.10;99.90;;;;;;5045485;28;19909;-76
2022/02/11 08:40:46;;;;;;;;;;;4.10;99.90;;;;;;5024927;28;19920;-76
2022/02/11 08:43:12;;;;;;;;;;;3.90;99.90;;;;;;5017151;28;19999;-76
2022/02/11 08:45:40;;;;;;;;;;;3.90;99.90;;;;;;5034435;28;19913;-76
2022/02/11 08:48:07;;;;;;;;;;;3.90;99.90;;;;;;5032217;28;19909;-76
2022/02/11 08:50:32;;;;;;;;;;;4.00;99.90;;;;;;5032484;28;19996;-76
2022/02/11 08:52:58;;;;;;;;;;;3.70;99.90;;;;;;5014206;28;19940;-76
2022/02/11 08:55:24;;;;;;;;;;;3.80;99.90;;;;;;5021958;28;19964;-76
2022/02/11 08:57:52;;;;;;;;;;;3.80;99.90;;;;;;5036995;28;19917;-76
2022/02/11 09:00:18;;;;;;;;;;;3.60;99.90;;;;;;5045865;28;19917;-76
2022/02/11 09:02:44;;;;;;;;;;;3.50;99.90;;;;;;5028467;28;19908;-76
2022/02/11 09:05:10;;;;;;;;;;;3.40;99.90;;;;;;5018805;28;19920;-76
2022/02/11 09:07:36;;;;;;;;;;;3.30;99.90;;;;;;5037003;28;19924;-76
2022/02/11 09:10:05;;;;;;;;;;;3.30;99.90;;;;;;5016069;28;19909;-76
2022/02/11 09:12:31;;;;;;;;;;;3.50;99.90;;;;;;5012427;28;19946;-76
2022/02/11 09:14:57;;;;;;;;;;;3.40;99.90;;;;;;5015065;28;20008;-76
2022/02/11 09:17:22;;;;;;;;;;;3.20;99.90;;;;;;5024307;28;19908;-77
2022/02/11 09:19:50;;;;;;;;;;;3.20;99.90;;;;;;5014611;28;20334;-77
2022/02/11 09:22:17;;;;;;;;;;;3.10;99.90;;;;;;5013904;28;19920;-76
2022/02/11 09:24:43;;;;;;;;;;;3.10;99.90;;;;;;5012001;28;19952;-76
2022/02/11 09:27:08;;;;;;;;;;;3.20;99.90;;;;;;5032554;28;19938;-76
2022/02/11 09:29:34;;;;;;;;;;;3.40;99.90;;;;;;5031955;28;19928;-77
2022/02/11 09:32:00;;;;;;;;;;;3.50;99.90;;;;;;5042256;28;20368;-76
2022/02/11 09:34:26;;;;;;;;;;;3.50;99.90;;;;;;5050223;28;19940;-76
2022/02/11 09:36:52;;;;;;;;;;;3.40;99.90;;;;;;5029610;28;20348;-76
2022/02/11 09:39:18;;;;;;;;;;;3.40;99.90;;;;;;5004137;28;19941;-76
2022/02/11 09:41:44;;;;;;;;;;;3.30;99.90;;;;;;5037174;28;19944;-76
2022/02/11 09:44:13;;;;;;;;;;;3.30;99.90;;;;;;5035091;28;20082;-76
2022/02/11 09:46:39;;;;;;;;;;;3.30;99.90;;;;;;5022748;28;19952;-76
2022/02/11 09:49:05;;;;;;;;;;;3.40;99.90;;;;;;5039964;28;20372;-76
2022/02/11 09:51:31;;;;;;;;;;;3.20;99.90;;;;;;5038373;28;19915;-77
2022/02/11 09:53:56;;;;;;;;;;;3.30;99.90;;;;;;5056886;28;19937;-77
2022/02/11 09:56:22;;;;;;;;;;;3.60;99.90;;;;;;5022559;28;19909;-77
2022/02/11 09:58:49;;;;;;;;;;;3.60;99.90;;;;;;5030937;28;19924;-77
2022/02/11 10:01:16;;;;;;;;;;;3.60;99.90;;;;;;5046592;28;19915;-76
2022/02/11 10:03:41;;;;;;;;;;;3.50;99.90;;;;;;5046150;28;20376;-77
2022/02/11 10:06:07;;;;;;;;;;;3.50;99.90;;;;;;5031779;28;19916;-76
2022/02/11 10:08:33;;;;;;;;;;;3.50;99.90;;;;;;5013647;28;19995;-76
2022/02/11 10:11:00;;;;;;;;;;;3.60;99.90;;;;;;5030970;28;19913;-76
2022/02/11 10:13:28;;;;;;;;;;;4.00;99.90;;;;;;5014730;28;19916;-77
2022/02/11 10:15:56;;;;;;;;;;;4.00;99.90;;;;;;5037886;28;19963;-76
2022/02/11 10:18:28;;;;;;;;;;;3.90;99.90;;;;;;5034896;28;19909;-76
2022/02/11 10:21:00;;;;;;;;;;;4.00;99.90;;;;;;5039508;28;19920;-76
2022/02/11 10:23:27;;;;;;;;;;;4.60;99.90;;;;;;5051257;28;19920;-77
2022/02/11 10:25:55;;;;;;;;;;;5.20;99.90;;;;;;5040967;28;19912;-76
2022/02/11 10:28:40;;;;;;;;;;;5.90;99.90;;;;;;5016628;28;19909;-76
2022/02/11 10:31:15;;;;;;;;;;;6.30;99.90;;;;;;5033450;28;19951;-77
2022/02/11 10:33:48;;;;;;;;;;;6.50;99.90;;;;;;5032625;28;19909;-78
2022/02/11 10:36:17;;;;;;;;;;;6.70;99.90;;;;;;5050205;28;19920;-78
2022/02/11 10:38:43;;;;;;;;;;;7.10;99.90;;;;;;5054302;28;19909;-77
2022/02/11 10:41:09;;;;;;;;;;;6.50;99.90;;;;;;5044949;28;19909;-78
2022/02/11 10:43:35;;;;;;;;;;;5.90;99.90;;;;;;5048487;28;19912;-76
2022/02/11 10:46:01;;;;;;;;;;;5.50;99.90;;;;;;5054539;28;20003;-78
2022/02/11 10:48:28;;;;;;;;;;;5.40;99.90;;;;;;5044557;28;20217;-78
2022/02/11 10:50:55;;;;;;;;;;;5.40;99.90;;;;;;5040164;28;19932;-77
2022/02/11 10:53:22;;;;;;;;;;;5.60;99.90;;;;;;5027755;28;19909;-78
2022/02/11 10:55:49;;;;;;;;;;;5.70;99.90;;;;;;5025792;28;19916;-77
2022/02/11 10:58:15;;;;;;;;;;;5.50;99.90;;;;;;5029287;28;19909;-77
2022/02/11 11:00:41;;;;;;;;;;;5.80;99.90;;;;;;5050456;28;19920;-77
2022/02/11 11:03:10;;;;;;;;;;;5.90;99.90;;;;;;5034130;28;20331;-76
2022/02/11 11:05:43;;;;;;;;;;;5.90;99.90;;;;;;5040744;28;19909;-76
2022/02/11 11:08:12;;;;;;;;;;;5.30;99.90;;;;;;5039007;28;19956;-76
2022/02/11 11:10:40;;;;;;;;;;;4.80;99.90;;;;;;5017552;28;19963;-76
2022/02/11 11:13:06;;;;;;;;;;;4.90;99.90;;;;;;5044579;28;20284;-76
2022/02/11 11:15:31;;;;;;;;;;;5.00;99.90;;;;;;5040244;28;19913;-76
2022/02/11 11:17:58;;;;;;;;;;;5.10;99.90;;;;;;5042988;28;19913;-76
2022/02/11 11:20:26;;;;;;;;;;;4.90;99.90;;;;;;5016390;28;19932;-76
2022/02/11 11:22:56;;;;;;;;;;;5.00;99.90;;;;;;5020933;28;19909;-76
2022/02/11 11:25:22;;;;;;;;;;;4.80;99.90;;;;;;5038141;28;20016;-76
2022/02/11 11:27:52;;;;;;;;;;;5.50;99.90;;;;;;5029176;28;20019;-76
2022/02/11 11:30:36;;;;;;;;;;;6.40;99.90;;;;;;5026722;28;19909;-76
2022/02/11 11:33:08;;;;;;;;;;;5.90;99.90;;;;;;5020513;28;19916;-76
2022/02/11 11:35:41;;;;;;;;;;;5.50;99.90;;;;;;5029421;28;19939;-76
2022/02/11 11:38:11;;;;;;;;;;;5.80;99.90;;;;;;5046843;28;19913;-76
2022/02/11 11:40:37;;;;;;;;;;;6.60;99.90;;;;;;5032840;28;19913;-76
2022/02/11 11:43:13;;;;;;;;;;;7.40;99.90;;;;;;5031936;28;19915;-77
2022/02/11 11:45:42;;;;;;;;;;;7.00;99.90;;;;;;5017304;28;19951;-76
2022/02/11 11:48:14;;;;;;;;;;;6.70;99.90;;;;;;5039422;28;20003;-76
2022/02/11 11:50:49;;;;;;;;;;;6.30;99.90;;;;;;5031495;28;20013;-76
2022/02/11 11:53:26;;;;;;;;;;;6.80;99.90;;;;;;5043955;28;20113;-76
2022/02/11 11:55:51;;;;;;;;;;;7.40;99.90;;;;;;5035448;28;19941;-76
2022/02/11 11:58:31;;;;;;;;;;;6.40;99.90;;;;;;5034215;28;19994;-76
2022/02/11 12:01:03;;;;;;;;;;;6.80;99.90;;;;;;5037808;28;19913;-76
2022/02/11 12:03:35;;;;;;;;;;;7.80;95.90;;;;;;5030051;28;20058;-77
2022/02/11 12:06:15;;;;;;;;;;;8.30;94.90;;;;;;5042315;28;19945;-76
2022/02/11 12:08:45;;;;;;;;;;;7.20;93.50;;;;;;5017310;28;19916;-76
2022/02/11 12:11:11;;;;;;;;;;;6.40;97.10;;;;;;5034627;28;19948;-76
2022/02/11 12:13:36;;;;;;;;;;;5.70;97.30;;;;;;5028834;28;20330;-76
2022/02/11 12:16:03;;;;;;;;;;;5.50;97.80;;;;;;5014391;28;19955;-76
2022/02/11 12:18:28;;;;;;;;;;;5.70;98.30;;;;;;5044773;28;19909;-76
2022/02/11 12:20:54;;;;;;;;;;;5.20;97.00;;;;;;5042950;28;19909;-76
2022/02/11 12:28:48;;;;;;;;;;;6.80;96.10;;;;;;5042285;28;19962;-77
2022/02/11 12:31:24;;;;;;;;;;;7.50;92.70;;;;;;5014757;28;20329;-76
2022/02/11 12:33:49;;;;;;;;;;;8.60;92.90;;;;;;5027658;28;19913;-77
2022/02/11 12:36:15;;;;;;;;;;;9.70;90.00;;;;;;5047009;28;19951;-77
2022/02/11 12:38:41;;;;;;;;;;;10.20;84.20;;;;;;5037864;28;19909;-76
2022/02/11 12:41:06;;;;;;;;;;;10.10;80.10;;;;;;5016660;28;19913;-76
2022/02/11 12:43:32;;;;;;;;;;;9.80;78.70;;;;;;5027420;28;19909;-77
2022/02/11 12:45:58;;;;;;;;;;;9.90;80.10;;;;;;5028365;28;19913;-76
2022/02/11 12:48:31;;;;;;;;;;;9.10;78.00;;;;;;5035916;28;20156;-76
2022/02/11 12:50:56;;;;;;;;;;;9.00;81.80;;;;;;5043456;28;20345;-76
2022/02/11 12:53:27;;;;;;;;;;;9.80;82.40;;;;;;5038895;28;19948;-76
2022/02/11 12:55:53;;;;;;;;;;;10.00;78.80;;;;;;5012886;28;19909;-76
2022/02/11 12:58:19;;;;;;;;;;;9.90;74.50;;;;;;5023796;28;19948;-77
2022/02/11 13:00:48;;;;;;;;;;;9.40;76.70;;;;;;5031640;28;19908;-78
2022/02/11 13:03:14;;;;;;;;;;;9.90;78.80;;;;;;5018144;28;19916;-76
2022/02/11 13:05:42;;;;;;;;;;;9.90;76.30;;;;;;5046581;28;20548;-76
2022/02/11 13:08:08;;;;;;;;;;;10.00;75.70;;;;;;5016378;28;19935;-76
2022/02/11 13:10:37;;;;;;;;;;;9.70;71.90;;;;;;5040811;28;19909;-76
2022/02/11 13:13:06;;;;;;;;;;;9.90;71.10;;;;;;5021017;28;19909;-76
2022/02/11 13:15:33;;;;;;;;;;;9.60;73.90;;;;;;5040089;28;19909;-77
2022/02/11 13:18:07;;;;;;;;;;;10.20;72.80;;;;;;5016591;28;19916;-76
2022/02/11 13:20:37;;;;;;;;;;;10.20;70.70;;;;;;5020175;28;19912;-76
2022/02/11 13:23:03;;;;;;;;;;;10.10;70.40;;;;;;5032781;28;19971;-76
2022/02/11 13:25:30;;;;;;;;;;;10.00;70.80;;;;;;5033483;28;20343;-77
2022/02/11 13:27:59;;;;;;;;;;;9.40;69.90;;;;;;5015684;28;20038;-76
2022/02/11 13:30:30;;;;;;;;;;;9.40;72.50;;;;;;5018629;28;19909;-76
2022/02/11 13:32:56;;;;;;;;;;;9.10;71.20;;;;;;5042062;28;19916;-76
2022/02/11 13:35:22;;;;;;;;;;;9.20;74.20;;;;;;5046142;28;20022;-76
2022/02/11 13:37:51;;;;;;;;;;;8.90;73.20;;;;;;5027271;28;20026;-77
2022/02/11 13:40:19;;;;;;;;;;;8.50;73.50;;;;;;5040704;28;19913;-76
2022/02/11 13:42:59;;;;;;;;;;;7.40;76.50;;;;;;5041577;28;20301;-76
2022/02/11 13:45:25;;;;;;;;;;;6.90;79.70;;;;;;5033419;28;19913;-76
2022/02/11 13:48:00;;;;;;;;;;;6.90;80.90;;;;;;5042441;28;19913;-77
2022/02/11 13:50:26;;;;;;;;;;;7.00;80.80;;;;;;5055631;28;19931;-78
2022/02/11 13:53:06;;;;;;;;;;;6.70;81.20;;;;;;5039423;28;19909;-77
2022/02/11 13:55:32;;;;;;;;;;;6.80;81.70;;;;;;5055926;28;19908;-77
2022/02/11 13:58:12;;;;;;;;;;;6.40;83.10;;;;;;5026254;28;19964;-77
2022/02/11 14:00:38;;;;;;;;;;;6.20;84.60;;;;;;5034180;28;19913;-78
2022/02/11 14:03:04;;;;;;;;;;;6.00;86.10;;;;;;5045805;28;19919;-77
2022/02/11 14:05:41;;;;;;;;;;;6.00;86.00;;;;;;5044398;28;19913;-78
2022/02/11 14:08:09;;;;;;;;;;;6.10;84.90;;;;;;5057955;28;19936;-78
2022/02/11 14:10:35;;;;;;;;;;;6.40;83.30;;;;;;5048195;28;19908;-78
2022/02/11 14:13:04;;;;;;;;;;;6.80;83.00;;;;;;5044908;28;19916;-78
2022/02/11 14:15:30;;;;;;;;;;;6.50;82.70;;;;;;5047340;28;19916;-77
2022/02/11 14:17:55;;;;;;;;;;;6.20;81.90;;;;;;5065503;28;19915;-77
2022/02/11 14:20:21;;;;;;;;;;;6.10;83.60;;;;;;5031095;28;19971;-78
2022/02/11 14:22:47;;;;;;;;;;;6.00;84.20;;;;;;5061624;28;19920;-78
2022/02/11 14:25:12;;;;;;;;;;;6.40;85.70;;;;;;5048934;28;19909;-78
2022/02/11 14:27:38;;;;;;;;;;;6.40;82.80;;;;;;5056504;28;19913;-77
2022/02/11 14:30:04;;;;;;;;;;;6.30;82.30;;;;;;5055195;28;19917;-78
2022/02/11 14:32:29;;;;;;;;;;;6.10;83.00;;;;;;5043519;28;19909;-77
2022/02/11 14:34:55;;;;;;;;;;;6.10;84.00;;;;;;5045118;28;20008;-77
2022/02/11 14:37:21;;;;;;;;;;;6.10;83.40;;;;;;5031089;28;19909;-77
2022/02/11 14:39:47;;;;;;;;;;;5.90;84.10;;;;;;5054141;28;19920;-77
2022/02/11 14:42:12;;;;;;;;;;;5.60;85.50;;;;;;5054158;28;19915;-77
2022/02/11 14:44:39;;;;;;;;;;;5.40;86.70;;;;;;5028123;28;19936;-78
2022/02/11 14:47:05;;;;;;;;;;;5.50;87.60;;;;;;5045688;28;19913;-78
2022/02/11 14:49:31;;;;;;;;;;;5.50;87.80;;;;;;5049043;28;19932;-78
2022/02/11 14:52:02;;;;;;;;;;;5.70;87.90;;;;;;5052925;28;19913;-78
2022/02/11 14:54:30;;;;;;;;;;;5.70;87.80;;;;;;5034612;28;19909;-77
2022/02/11 14:56:56;;;;;;;;;;;5.70;87.30;;;;;;5057882;28;19915;-78
2022/02/11 14:59:23;;;;;;;;;;;5.50;88.10;;;;;;5029781;28;20025;-78
2022/02/11 15:01:49;;;;;;;;;;;5.30;89.50;;;;;;5040044;28;19917;-76
2022/02/11 15:04:17;;;;;;;;;;;5.40;90.30;;;;;;5035401;28;19909;-77
2022/02/11 15:06:46;;;;;;;;;;;5.50;90.20;;;;;;5036115;28;20031;-76
2022/02/11 15:09:12;;;;;;;;;;;5.50;90.60;;;;;;5028864;28;19914;-76
2022/02/11 15:11:38;;;;;;;;;;;5.70;90.50;;;;;;5034059;28;19998;-77
2022/02/11 15:14:04;;;;;;;;;;;5.40;90.10;;;;;;5023113;28;20384;-77
2022/02/11 15:16:30;;;;;;;;;;;5.50;90.70;;;;;;5041795;28;19909;-77
2022/02/11 15:18:55;;;;;;;;;;;5.20;90.60;;;;;;5041181;28;19948;-77
2022/02/11 15:21:21;;;;;;;;;;;5.30;90.60;;;;;;5044519;28;19909;-77
2022/02/11 15:23:47;;;;;;;;;;;5.10;91.10;;;;;;5050886;28;20368;-77
2022/02/11 15:26:16;;;;;;;;;;;5.10;91.50;;;;;;5035512;28;19959;-77
2022/02/11 15:28:41;;;;;;;;;;;5.10;91.60;;;;;;5032116;28;19909;-77
2022/02/11 15:31:09;;;;;;;;;;;5.00;91.60;;;;;;5019394;28;19963;-77
2022/02/11 15:33:35;;;;;;;;;;;5.00;91.90;;;;;;5020361;28;19909;-77
2022/02/11 15:36:01;;;;;;;;;;;5.20;92.30;;;;;;5048995;28;20041;-77
2022/02/11 15:38:27;;;;;;;;;;;5.30;91.70;;;;;;5029696;28;19917;-77
2022/02/11 15:40:52;;;;;;;;;;;5.30;92.20;;;;;;5040906;28;20373;-77
2022/02/11 15:43:18;;;;;;;;;;;5.20;91.80;;;;;;5048903;28;19909;-77
2022/02/11 15:45:44;;;;;;;;;;;4.90;92.10;;;;;;5044424;28;20300;-77
2022/02/11 15:48:10;;;;;;;;;;;4.90;92.60;;;;;;5040415;28;19908;-77
2022/02/11 15:50:36;;;;;;;;;;;4.70;93.20;;;;;;5024032;28;20000;-77
2022/02/11 15:53:02;;;;;;;;;;;4.90;93.40;;;;;;5042479;28;19937;-77
2022/02/11 15:55:27;;;;;;;;;;;4.90;92.70;;;;;;5043343;28;19909;-77
2022/02/11 15:57:53;;;;;;;;;;;4.80;93.00;;;;;;5043897;28;19916;-77
2022/02/11 16:00:19;;;;;;;;;;;4.80;93.20;;;;;;5049367;28;19940;-77
2022/02/11 16:02:45;;;;;;;;;;;4.80;93.70;;;;;;5022708;28;19909;-77
2022/02/11 16:05:11;;;;;;;;;;;4.80;93.50;;;;;;5035457;28;19909;-77
2022/02/11 16:07:37;;;;;;;;;;;5.00;93.90;;;;;;5025381;28;19924;-77
2022/02/11 16:10:05;;;;;;;;;;;4.90;93.50;;;;;;5011983;28;22065;-77
2022/02/11 16:12:31;;;;;;;;;;;4.90;93.50;;;;;;5036357;28;19913;-77
2022/02/11 16:14:58;;;;;;;;;;;4.80;93.50;;;;;;5042311;28;19916;-77
2022/02/11 16:17:23;;;;;;;;;;;4.80;93.80;;;;;;5037687;28;20001;-77
2022/02/11 16:19:49;;;;;;;;;;;4.70;94.10;;;;;;5052989;28;19944;-79
2022/02/11 16:22:15;;;;;;;;;;;4.70;94.30;;;;;;5042216;28;19908;-76
2022/02/11 16:24:42;;;;;;;;;;;4.90;94.20;;;;;;5046820;28;20407;-78
2022/02/11 16:27:08;;;;;;;;;;;5.00;93.90;;;;;;5055190;28;19923;-77
2022/02/11 16:29:34;;;;;;;;;;;4.70;94.50;;;;;;5026311;28;19936;-77
2022/02/11 16:32:01;;;;;;;;;;;4.70;94.30;;;;;;5054166;28;19948;-77
2022/02/11 16:34:26;;;;;;;;;;;4.50;94.80;;;;;;5043439;28;19909;-76
2022/02/11 16:36:52;;;;;;;;;;;4.50;95.40;;;;;;5035720;28;19909;-76
2022/02/11 16:39:18;;;;;;;;;;;4.50;96.10;;;;;;5041420;28;19951;-75
2022/02/11 16:41:43;;;;;;;;;;;4.40;96.40;;;;;;5030618;28;19964;-76
2022/02/11 16:44:09;;;;;;;;;;;4.50;96.40;;;;;;5030555;28;19909;-76
2022/02/11 16:46:35;;;;;;;;;;;4.50;96.60;;;;;;5036196;28;19916;-76
2022/02/11 16:49:03;;;;;;;;;;;4.40;96.80;;;;;;5012672;28;19909;-75
2022/02/11 16:51:30;;;;;;;;;;;4.40;96.70;;;;;;5033167;28;19909;-76
2022/02/11 16:53:55;;;;;;;;;;;4.20;97.00;;;;;;5016790;28;19916;-76
2022/02/11 16:56:21;;;;;;;;;;;4.40;97.90;;;;;;5023100;28;19909;-76
2022/02/11 16:58:47;;;;;;;;;;;4.30;97.00;;;;;;5032912;28;19921;-77
2022/02/11 17:01:12;;;;;;;;;;;4.00;97.60;;;;;;5016066;28;20346;-77
2022/02/11 17:03:38;;;;;;;;;;;4.00;98.40;;;;;;5033198;28;19916;-76
2022/02/11 17:06:07;;;;;;;;;;;4.00;98.90;;;;;;5015175;28;20309;-77
2022/02/11 17:08:34;;;;;;;;;;;3.90;99.60;;;;;;5015145;28;19931;-76
2022/02/11 17:11:00;;;;;;;;;;;3.80;99.90;;;;;;5015037;28;19909;-76
2022/02/11 17:13:26;;;;;;;;;;;3.80;99.90;;;;;;4998521;28;19913;-75
2022/02/11 17:15:52;;;;;;;;;;;3.80;99.90;;;;;;5014584;28;20414;-76
2022/02/11 17:18:18;;;;;;;;;;;3.90;99.90;;;;;;5032472;28;19920;-76
2022/02/11 17:20:44;;;;;;;;;;;3.80;99.90;;;;;;5014527;28;19909;-76
2022/02/11 17:23:10;;;;;;;;;;;3.70;99.90;;;;;;4998394;28;19999;-76
2022/02/11 17:25:35;;;;;;;;;;;3.60;99.90;;;;;;5017253;28;19915;-76
2022/02/11 17:28:01;;;;;;;;;;;3.50;99.90;;;;;;5018178;28;20266;-76
2022/02/11 17:30:27;;;;;;;;;;;3.50;99.90;;;;;;5018759;28;19914;-76
2022/02/11 17:32:52;;;;;;;;;;;3.50;99.90;;;;;;5036035;28;19925;-76
2022/02/11 17:35:18;;;;;;;;;;;3.70;99.90;;;;;;5035155;28;19909;-76
2022/02/11 17:37:44;;;;;;;;;;;3.80;99.90;;;;;;5018368;28;19916;-76
2022/02/11 17:40:09;;;;;;;;;;;3.80;99.90;;;;;;5018312;28;19909;-76
2022/02/11 17:42:35;;;;;;;;;;;4.00;99.90;;;;;;5036089;28;20261;-76
2022/02/11 17:45:02;;;;;;;;;;;4.00;99.90;;;;;;5019864;28;19909;-77
2022/02/11 17:47:27;;;;;;;;;;;3.90;99.90;;;;;;5018246;28;19967;-76
2022/02/11 17:49:53;;;;;;;;;;;3.70;99.90;;;;;;5002096;28;19913;-76
2022/02/11 17:52:19;;;;;;;;;;;3.40;99.90;;;;;;5001742;28;19916;-76
2022/02/11 17:54:44;;;;;;;;;;;3.30;99.90;;;;;;5018315;28;19932;-76
2022/02/11 17:57:11;;;;;;;;;;;3.30;99.90;;;;;;5017934;28;19909;-76
2022/02/11 17:59:37;;;;;;;;;;;3.40;99.90;;;;;;5018190;28;20471;-76
2022/02/11 18:02:03;;;;;;;;;;;3.30;99.90;;;;;;5001800;28;20007;-76
2022/02/11 18:04:33;;;;;;;;;;;3.20;99.90;;;;;;5018359;28;19909;-76
2022/02/11 18:06:59;;;;;;;;;;;3.10;99.90;;;;;;5001471;28;20047;-76
2022/02/11 18:09:24;;;;;;;;;;;3.00;99.90;;;;;;5035972;28;20349;-76
2022/02/11 18:11:50;;;;;;;;;;;3.10;99.90;;;;;;5018134;28;20008;-76
2022/02/11 18:14:15;;;;;;;;;;;3.10;99.90;;;;;;5001661;28;19909;-76
2022/02/11 18:16:42;;;;;;;;;;;3.00;99.90;;;;;;5035689;28;19963;-76
2022/02/11 18:19:10;;;;;;;;;;;2.80;99.90;;;;;;5018003;28;19990;-76
2022/02/11 18:21:35;;;;;;;;;;;2.80;99.90;;;;;;5017860;28;20436;-76
2022/02/11 18:24:01;;;;;;;;;;;2.80;99.90;;;;;;5017689;28;19952;-76